createdAt,value
2023-05-19T00:02:13.544Z,12.35
2023-05-19T00:05:18.678Z,12.29
2023-05-19T00:08:24.785Z,12.23
2023-05-19T00:11:28.561Z,12.14
2023-05-19T00:14:31.641Z,11.98
2023-05-19T00:17:34.591Z,11.86
2023-05-19T00:20:38.196Z,11.78
2023-05-19T00:23:41.301Z,11.71
2023-05-19T00:26:44.136Z,11.66
2023-05-19T00:29:46.808Z,11.60
2023-05-19T00:32:49.621Z,11.54
2023-05-19T00:35:52.543Z,11.50
2023-05-19T00:38:55.213Z,11.45
2023-05-19T00:41:57.879Z,11.41
2023-05-19T00:45:00.640Z,11.38
2023-05-19T00:48:03.383Z,11.35
2023-05-19T00:51:06.809Z,11.33
2023-05-19T00:54:09.867Z,11.31
2023-05-19T00:57:14.553Z,11.27
2023-05-19T01:00:17.473Z,11.24
2023-05-19T01:03:20.762Z,11.23
2023-05-19T01:06:23.557Z,11.22
2023-05-19T01:09:26.672Z,11.16
2023-05-19T01:12:29.830Z,11.13
2023-05-19T01:15:42.255Z,11.10
2023-05-19T01:18:56.481Z,11.08
2023-05-19T01:22:28.413Z,11.08
2023-05-19T01:25:43.549Z,11.09
2023-05-19T01:29:29.335Z,11.10
2023-05-19T01:32:34.678Z,11.11
2023-05-19T01:35:39.738Z,11.14
2023-05-19T01:38:44.090Z,11.14
2023-05-19T01:41:47.393Z,11.12
2023-05-19T01:44:51.456Z,11.10
2023-05-19T01:47:57.665Z,11.09
2023-05-19T01:51:00.852Z,10.98
2023-05-19T01:54:03.724Z,10.89
2023-05-19T01:57:25.016Z,10.82
2023-05-19T02:00:31.321Z,10.72
2023-05-19T02:04:16.422Z,10.67
2023-05-19T02:07:47.718Z,10.56
2023-05-19T02:11:03.052Z,10.45
2023-05-19T02:14:38.181Z,10.38
2023-05-19T02:17:47.988Z,10.36
2023-05-19T02:20:50.925Z,10.33
2023-05-19T02:23:53.576Z,10.36
2023-05-19T02:26:56.333Z,10.36
2023-05-19T02:29:58.965Z,10.34
2023-05-19T02:33:01.581Z,10.31
2023-05-19T02:36:04.948Z,10.27
2023-05-19T02:39:07.687Z,10.23
2023-05-19T02:42:10.987Z,10.21
2023-05-19T02:45:14.559Z,10.17
2023-05-19T02:48:17.310Z,10.12
2023-05-19T02:51:20.059Z,10.09
2023-05-19T02:54:22.772Z,10.07
2023-05-19T02:57:26.787Z,10.05
2023-05-19T03:00:29.385Z,10.03
2023-05-19T03:03:33.067Z,10.01
2023-05-19T03:06:36.480Z,9.99
2023-05-19T03:09:39.857Z,9.97
2023-05-19T03:12:42.465Z,9.94
2023-05-19T03:15:45.186Z,9.90
2023-05-19T03:18:48.030Z,9.90
2023-05-19T03:21:50.958Z,9.90
2023-05-19T03:24:54.421Z,9.84
2023-05-19T03:27:57.190Z,9.90
2023-05-19T03:31:00.051Z,9.92
2023-05-19T03:34:03.635Z,9.91
2023-05-19T03:37:06.334Z,9.92
2023-05-19T03:40:09.564Z,9.93
2023-05-19T03:43:12.268Z,9.94
2023-05-19T03:46:15.064Z,9.95
2023-05-19T03:49:17.725Z,9.98
2023-05-19T03:52:20.444Z,10.00
2023-05-19T03:55:23.392Z,10.01
2023-05-19T03:58:27.117Z,10.04
2023-05-19T04:01:29.771Z,10.07
2023-05-19T04:04:32.799Z,10.09
2023-05-19T04:07:36.129Z,10.12
2023-05-19T04:10:38.893Z,10.16
2023-05-19T04:13:41.553Z,10.18
2023-05-19T04:16:44.280Z,10.20
2023-05-19T04:19:47.093Z,10.23
2023-05-19T04:22:49.764Z,10.26
2023-05-19T04:25:52.669Z,10.30
2023-05-19T04:28:56.838Z,10.34
2023-05-19T04:32:01.039Z,10.38
2023-05-19T04:35:06.505Z,10.42
2023-05-19T04:38:10.216Z,10.49
2023-05-19T04:41:13.427Z,10.55
2023-05-19T04:44:18.482Z,10.62
2023-05-19T04:47:21.766Z,10.69
2023-05-19T04:50:24.852Z,10.75
2023-05-19T04:53:29.428Z,10.83
2023-05-19T04:56:32.051Z,10.89
2023-05-19T04:59:34.811Z,10.94
2023-05-19T05:02:37.835Z,11.00
2023-05-19T05:05:40.819Z,11.05
2023-05-19T05:08:44.265Z,11.12
2023-05-19T05:11:47.339Z,11.17
2023-05-19T05:14:50.543Z,11.24
2023-05-19T05:17:53.836Z,11.30
2023-05-19T05:20:57.511Z,11.36
2023-05-19T05:24:00.709Z,11.43
2023-05-19T05:27:04.081Z,11.50
2023-05-19T05:30:07.723Z,11.55
2023-05-19T05:33:10.767Z,11.59
2023-05-19T05:36:14.344Z,11.62
2023-05-19T05:39:17.016Z,11.66
2023-05-19T05:42:20.463Z,11.71
2023-05-19T05:45:23.533Z,11.75
2023-05-19T05:48:26.935Z,11.80
2023-05-19T05:51:29.978Z,11.87
2023-05-19T05:54:32.907Z,11.96
2023-05-19T05:57:36.741Z,12.04
2023-05-19T06:00:39.414Z,12.12
2023-05-19T06:03:45.186Z,12.22
2023-05-19T06:06:48.032Z,12.33
2023-05-19T06:09:51.084Z,12.41
2023-05-19T06:12:53.767Z,12.49
2023-05-19T06:15:56.319Z,12.58
2023-05-19T06:18:59.394Z,12.65
2023-05-19T06:22:02.054Z,12.71
2023-05-19T06:25:05.961Z,12.79
2023-05-19T06:28:08.843Z,12.86
2023-05-19T06:31:11.645Z,12.90
2023-05-19T06:34:17.805Z,12.96
2023-05-19T06:37:23.011Z,13.04
2023-05-19T06:40:25.844Z,13.11
2023-05-19T06:43:29.105Z,13.17
2023-05-19T06:46:31.822Z,13.18
2023-05-19T06:49:34.451Z,13.26
2023-05-19T06:52:37.604Z,13.35
2023-05-19T06:55:50.785Z,13.44
2023-05-19T06:59:00.846Z,13.55
2023-05-19T07:02:04.830Z,13.63
2023-05-19T07:05:08.354Z,13.73
2023-05-19T07:08:11.298Z,13.85
2023-05-19T07:11:14.421Z,13.99
2023-05-19T07:14:17.239Z,14.11
2023-05-19T07:17:19.838Z,14.19
2023-05-19T07:20:22.549Z,14.30
2023-05-19T07:23:25.262Z,14.39
2023-05-19T07:26:28.322Z,14.49
2023-05-19T07:29:31.416Z,14.54
2023-05-19T07:32:34.227Z,14.58
2023-05-19T07:35:36.989Z,14.65
2023-05-19T07:38:39.959Z,14.72
2023-05-19T07:41:42.865Z,14.78
2023-05-19T07:44:45.966Z,14.85
2023-05-19T07:47:48.758Z,14.91
2023-05-19T07:50:52.646Z,14.96
2023-05-19T07:53:55.465Z,14.98
2023-05-19T07:56:58.136Z,14.94
2023-05-19T08:00:00.807Z,14.81
2023-05-19T08:03:03.872Z,14.75
2023-05-19T08:06:06.645Z,14.77
2023-05-19T08:09:09.816Z,14.74
2023-05-19T08:12:12.545Z,14.75
2023-05-19T08:15:16.615Z,14.75
2023-05-19T08:18:20.404Z,14.76
2023-05-19T08:21:23.193Z,14.75
2023-05-19T08:24:26.761Z,14.79
2023-05-19T08:27:30.326Z,14.85
2023-05-19T08:30:33.234Z,14.92
2023-05-19T08:33:36.163Z,14.98
2023-05-19T08:36:39.078Z,15.04
2023-05-19T08:39:41.740Z,15.03
2023-05-19T08:42:48.175Z,15.02
2023-05-19T08:45:54.130Z,15.03
2023-05-19T08:49:02.112Z,15.11
2023-05-19T08:52:25.470Z,15.25
2023-05-19T08:55:34.429Z,15.42
2023-05-19T08:58:41.430Z,15.58
2023-05-19T09:01:46.140Z,15.67
2023-05-19T09:04:49.451Z,15.79
2023-05-19T09:07:52.207Z,15.91
2023-05-19T09:10:55.110Z,16.04
2023-05-19T09:13:57.790Z,16.08
2023-05-19T09:17:01.397Z,16.16
2023-05-19T09:20:11.699Z,16.33
2023-05-19T09:23:16.386Z,16.50
2023-05-19T09:26:20.920Z,16.65
2023-05-19T09:29:24.416Z,16.75
2023-05-19T09:32:27.877Z,16.75
2023-05-19T09:35:30.724Z,16.72
2023-05-19T09:38:35.046Z,16.74
2023-05-19T09:41:37.755Z,16.83
2023-05-19T09:44:41.616Z,16.88
2023-05-19T09:47:44.409Z,16.96
2023-05-19T09:50:49.504Z,17.05
2023-05-19T09:53:53.332Z,17.07
2023-05-19T09:57:01.098Z,17.08
2023-05-19T10:00:12.050Z,16.95
2023-05-19T10:03:16.821Z,16.99
2023-05-19T10:06:21.803Z,17.08
2023-05-19T10:09:26.111Z,17.10
2023-05-19T10:12:29.181Z,16.97
2023-05-19T10:15:34.472Z,16.92
2023-05-19T10:18:40.341Z,16.92
2023-05-19T10:21:43.284Z,16.97
2023-05-19T10:24:46.044Z,16.95
2023-05-19T10:27:55.360Z,16.92
2023-05-19T10:31:01.793Z,16.83
2023-05-19T10:34:19.652Z,16.82
2023-05-19T10:37:41.879Z,16.90
2023-05-19T10:40:58.883Z,17.00
2023-05-19T10:44:21.659Z,17.19
2023-05-19T10:47:28.178Z,17.40
2023-05-19T10:50:37.838Z,17.53
2023-05-19T10:53:46.950Z,17.49
2023-05-19T10:56:49.614Z,17.25
2023-05-19T10:59:52.388Z,16.90
2023-05-19T11:03:15.941Z,16.65
2023-05-19T11:06:29.123Z,16.44
2023-05-19T11:09:39.922Z,16.43
2023-05-19T11:12:46.057Z,16.50
2023-05-19T11:15:50.118Z,16.55
2023-05-19T11:18:54.996Z,16.69
2023-05-19T11:22:08.900Z,16.84
2023-05-19T11:25:11.588Z,16.90
2023-05-19T11:28:19.922Z,16.92
2023-05-19T11:31:23.227Z,16.94
2023-05-19T11:34:26.196Z,16.98
2023-05-19T11:37:33.071Z,16.97
2023-05-19T11:40:36.450Z,16.95
2023-05-19T11:43:39.422Z,16.91
2023-05-19T11:46:42.156Z,16.91
2023-05-19T11:49:45.961Z,16.93
2023-05-19T11:52:49.053Z,16.91
2023-05-19T11:55:51.966Z,16.95
2023-05-19T11:58:55.164Z,16.96
2023-05-19T12:01:58.648Z,17.06
2023-05-19T12:05:02.269Z,17.12
2023-05-19T12:08:05.464Z,17.17
2023-05-19T12:11:08.719Z,17.11
2023-05-19T12:14:12.485Z,17.06
2023-05-19T12:17:17.536Z,17.12
2023-05-19T12:20:20.481Z,17.12
2023-05-19T12:23:24.787Z,17.08
2023-05-19T12:26:27.841Z,17.06
2023-05-19T12:29:31.842Z,17.12
2023-05-19T12:32:37.793Z,17.26
2023-05-19T12:35:42.709Z,17.49
2023-05-19T12:38:46.082Z,17.79
2023-05-19T12:41:48.742Z,18.45
2023-05-19T12:44:52.706Z,19.28
2023-05-19T12:47:56.237Z,19.56
2023-05-19T12:50:59.299Z,19.55
2023-05-19T12:54:08.183Z,19.44
2023-05-19T12:57:11.128Z,19.30
2023-05-19T13:00:22.863Z,19.03
2023-05-19T13:03:25.865Z,18.78
2023-05-19T13:06:28.928Z,18.66
2023-05-19T13:09:35.349Z,18.51
2023-05-19T13:12:38.013Z,18.28
2023-05-19T13:15:42.860Z,18.07
2023-05-19T13:18:45.595Z,17.91
2023-05-19T13:21:48.880Z,17.76
2023-05-19T13:24:53.432Z,17.58
2023-05-19T13:27:57.008Z,17.34
2023-05-19T13:30:59.694Z,17.12
2023-05-19T13:34:02.917Z,16.97
2023-05-19T13:37:06.644Z,16.87
2023-05-19T13:40:11.195Z,16.87
2023-05-19T13:43:14.010Z,16.98
2023-05-19T13:46:16.697Z,17.00
2023-05-19T13:49:19.410Z,16.94
2023-05-19T13:52:22.179Z,16.87
2023-05-19T13:55:26.507Z,16.80
2023-05-19T13:58:29.884Z,16.73
2023-05-19T14:01:33.102Z,16.64
2023-05-19T14:04:39.845Z,16.61
2023-05-19T14:07:42.739Z,16.58
2023-05-19T14:10:48.647Z,16.46
2023-05-19T14:13:52.922Z,16.35
2023-05-19T14:16:56.291Z,16.26
2023-05-19T14:20:00.443Z,16.16
2023-05-19T14:23:03.144Z,16.15
2023-05-19T14:26:05.937Z,16.18
2023-05-19T14:29:08.892Z,16.17
2023-05-19T14:32:11.637Z,16.16
2023-05-19T14:35:15.759Z,16.14
2023-05-19T14:38:18.606Z,16.06
2023-05-19T14:41:22.116Z,16.00
2023-05-19T14:44:24.911Z,16.00
2023-05-19T14:47:27.626Z,16.05
2023-05-19T14:50:30.617Z,16.02
2023-05-19T14:53:33.490Z,16.03
2023-05-19T14:56:36.204Z,16.02
2023-05-19T14:59:39.576Z,15.96
2023-05-19T15:02:42.483Z,15.86
2023-05-19T15:05:45.588Z,15.80
2023-05-19T15:08:48.266Z,15.78
2023-05-19T15:11:51.192Z,15.71
2023-05-19T15:14:53.834Z,15.63
2023-05-19T15:17:56.534Z,15.57
2023-05-19T15:20:59.210Z,15.52
2023-05-19T15:24:02.000Z,15.47
2023-05-19T15:27:05.171Z,15.44
2023-05-19T15:30:08.497Z,15.35
2023-05-19T15:33:12.339Z,15.23
2023-05-19T15:36:16.780Z,15.17
2023-05-19T15:39:19.755Z,15.10
2023-05-19T15:42:22.425Z,15.00
2023-05-19T15:45:25.079Z,14.86
2023-05-19T15:48:29.184Z,14.78
2023-05-19T15:51:32.216Z,14.69
2023-05-19T15:54:34.873Z,14.66
2023-05-19T15:57:37.549Z,14.64
2023-05-19T16:00:40.114Z,14.60
2023-05-19T16:03:43.960Z,14.58
2023-05-19T16:06:46.877Z,14.56
2023-05-19T16:09:50.361Z,14.56
2023-05-19T16:12:53.042Z,14.54
2023-05-19T16:15:56.142Z,14.52
2023-05-19T16:18:59.030Z,14.51
2023-05-19T16:22:01.748Z,14.46
2023-05-19T16:25:05.225Z,14.45
2023-05-19T16:28:08.097Z,14.47
2023-05-19T16:31:10.911Z,14.47
2023-05-19T16:34:14.556Z,14.50
2023-05-19T16:37:17.214Z,14.50
2023-05-19T16:40:20.180Z,14.45
2023-05-19T16:43:22.853Z,14.41
2023-05-19T16:46:25.557Z,14.36
2023-05-19T16:49:28.495Z,14.33
2023-05-19T16:52:31.357Z,14.30
2023-05-19T16:55:34.224Z,14.31
2023-05-19T16:58:36.823Z,14.32
2023-05-19T17:01:39.570Z,14.30
2023-05-19T17:04:42.558Z,14.27
2023-05-19T17:07:45.193Z,14.22
2023-05-19T17:10:48.096Z,14.16
2023-05-19T17:13:50.735Z,14.11
2023-05-19T17:16:53.561Z,14.07
2023-05-19T17:19:56.909Z,14.06
2023-05-19T17:22:59.541Z,14.02
2023-05-19T17:26:02.607Z,14.05
2023-05-19T17:29:06.025Z,14.01
2023-05-19T17:32:08.954Z,13.96
2023-05-19T17:35:15.236Z,13.91
2023-05-19T17:38:17.925Z,13.90
2023-05-19T17:41:21.274Z,13.86
2023-05-19T17:44:24.044Z,13.78
2023-05-19T17:47:26.811Z,13.73
2023-05-19T17:50:29.402Z,13.67
2023-05-19T17:53:32.720Z,13.57
2023-05-19T17:56:39.783Z,13.45
2023-05-19T17:59:42.615Z,13.42
2023-05-19T18:02:45.675Z,13.39
2023-05-19T18:05:49.647Z,13.36
2023-05-19T18:08:56.949Z,13.35
2023-05-19T18:12:02.434Z,13.36
2023-05-19T18:15:06.071Z,13.34
2023-05-19T18:18:10.793Z,13.32
2023-05-19T18:21:17.853Z,13.28
2023-05-19T18:24:20.680Z,13.24
2023-05-19T18:27:23.283Z,13.23
2023-05-19T18:30:25.949Z,13.23
2023-05-19T18:33:30.118Z,13.20
2023-05-19T18:36:35.557Z,13.13
2023-05-19T18:39:38.312Z,13.11
2023-05-19T18:42:41.070Z,13.09
2023-05-19T18:45:44.002Z,13.10
2023-05-19T18:48:47.024Z,13.08
2023-05-19T18:51:50.220Z,13.06
2023-05-19T18:54:53.167Z,13.03
2023-05-19T18:57:55.976Z,13.00
2023-05-19T19:00:58.872Z,12.99
2023-05-19T19:04:02.369Z,12.98
2023-05-19T19:07:05.832Z,12.96
2023-05-19T19:10:09.568Z,12.94
2023-05-19T19:13:12.349Z,12.94
2023-05-19T19:16:14.961Z,12.93
2023-05-19T19:19:17.810Z,12.90
2023-05-19T19:22:20.871Z,12.84
2023-05-19T19:25:23.764Z,12.77
2023-05-19T19:28:27.191Z,12.75
2023-05-19T19:31:30.132Z,12.72
2023-05-19T19:34:33.749Z,12.70
2023-05-19T19:37:36.647Z,12.68
2023-05-19T19:40:39.393Z,12.70
2023-05-19T19:43:42.141Z,12.70
2023-05-19T19:46:44.916Z,12.70
2023-05-19T19:49:49.430Z,12.70
2023-05-19T19:52:52.213Z,12.69
2023-05-19T19:55:58.853Z,12.66
2023-05-19T19:59:01.726Z,12.65
2023-05-19T20:02:04.639Z,12.62
2023-05-19T20:05:08.013Z,12.61
2023-05-19T20:08:10.794Z,12.59
2023-05-19T20:11:13.621Z,12.55
2023-05-19T20:14:18.971Z,12.52
2023-05-19T20:17:22.019Z,12.51
2023-05-19T20:20:24.892Z,12.50
2023-05-19T20:23:27.863Z,12.48
2023-05-19T20:26:31.553Z,12.47
2023-05-19T20:29:34.208Z,12.45
2023-05-19T20:32:36.898Z,12.46
2023-05-19T20:35:39.588Z,12.44
2023-05-19T20:38:42.344Z,12.47
2023-05-19T20:41:45.009Z,12.49
2023-05-19T20:44:47.745Z,12.51
2023-05-19T20:47:50.951Z,12.53
2023-05-19T20:50:54.611Z,12.50
2023-05-19T20:53:57.274Z,12.48
2023-05-19T20:56:59.971Z,12.46
2023-05-19T21:00:03.273Z,12.43
2023-05-19T21:03:06.250Z,12.39
2023-05-19T21:06:09.169Z,12.37
2023-05-19T21:09:12.182Z,12.37
2023-05-19T21:12:16.402Z,12.39
2023-05-19T21:15:19.290Z,12.39
2023-05-19T21:18:21.977Z,12.38
2023-05-19T21:21:24.866Z,12.38
2023-05-19T21:24:28.559Z,12.37
2023-05-19T21:27:33.011Z,12.34
2023-05-19T21:30:35.843Z,12.32
2023-05-19T21:33:38.674Z,12.31
2023-05-19T21:36:42.484Z,12.32
2023-05-19T21:39:45.246Z,12.31
2023-05-19T21:42:47.936Z,12.28
2023-05-19T21:45:50.815Z,12.28
2023-05-19T21:48:53.464Z,12.26
2023-05-19T21:51:56.214Z,12.25
2023-05-19T21:54:58.917Z,12.25
2023-05-19T21:58:02.593Z,12.26
2023-05-19T22:01:05.657Z,12.27
2023-05-19T22:04:09.875Z,12.26
2023-05-19T22:07:12.718Z,12.25
2023-05-19T22:10:15.375Z,12.24
2023-05-19T22:13:19.063Z,12.23
2023-05-19T22:16:22.205Z,12.19
2023-05-19T22:19:25.007Z,12.15
2023-05-19T22:22:27.805Z,12.15
2023-05-19T22:25:30.848Z,12.18
2023-05-19T22:28:33.460Z,12.20
2023-05-19T22:31:36.497Z,12.22
2023-05-19T22:34:39.487Z,12.22
2023-05-19T22:37:42.351Z,12.21
2023-05-19T22:40:45.193Z,12.21
2023-05-19T22:43:47.883Z,12.21
2023-05-19T22:46:50.759Z,12.23
2023-05-19T22:49:54.821Z,12.23
2023-05-19T22:52:58.236Z,12.23
2023-05-19T22:56:01.073Z,12.22
2023-05-19T22:59:03.925Z,12.23
2023-05-19T23:02:07.651Z,12.21
2023-05-19T23:05:10.610Z,12.20
2023-05-19T23:08:13.288Z,12.19
2023-05-19T23:11:16.076Z,12.20
2023-05-19T23:14:18.822Z,12.20
2023-05-19T23:17:21.421Z,12.20
2023-05-19T23:20:23.965Z,12.21
2023-05-19T23:23:27.568Z,12.21
2023-05-19T23:26:30.894Z,12.21
2023-05-19T23:29:33.666Z,12.23
2023-05-19T23:32:36.443Z,12.23
2023-05-19T23:35:39.815Z,12.24
2023-05-19T23:38:42.489Z,12.25
2023-05-19T23:41:45.254Z,12.25
2023-05-19T23:44:48.132Z,12.24
2023-05-19T23:47:51.111Z,12.21
2023-05-19T23:50:53.716Z,12.22
2023-05-19T23:53:56.360Z,12.21
2023-05-19T23:56:59.514Z,12.20
